Time;durP1;ratioP1;P1;durP2;ratioP2;P2;SDS_P1;SDS_P2;PMS_P1;PMS_P2;Temp;Humidity;BMP_temperature;BMP_pressure;BME280_temperature;BME280_humidity;BME280_pressure;Samples;Min_cycle;Max_cycle;Signal;HPM_P1;HPM_P2
2021/05/12 00:00:04;;;;;;;1.60;1.30;;;14.80;99.90;;;;;;5052463;28;20271;-60
2021/05/12 00:02:30;;;;;;;2.63;1.50;;;14.80;99.90;;;;;;5052595;28;20444;-60
2021/05/12 00:04:57;;;;;;;1.60;1.43;;;14.80;99.90;;;;;;5052158;28;20210;-61
2021/05/12 00:07:23;;;;;;;2.47;1.80;;;14.80;99.90;;;;;;5052564;28;20206;-61
2021/05/12 00:09:49;;;;;;;1.97;1.57;;;14.70;99.90;;;;;;5052028;28;20709;-61
2021/05/12 00:12:15;;;;;;;1.67;1.57;;;14.70;99.90;;;;;;5052486;28;20339;-60
2021/05/12 00:14:42;;;;;;;3.03;1.80;;;14.70;99.90;;;;;;5051897;28;20210;-60
2021/05/12 00:17:09;;;;;;;3.07;1.70;;;14.60;99.90;;;;;;5052031;28;20212;-60
2021/05/12 00:19:38;;;;;;;3.63;2.13;;;14.60;99.90;;;;;;5051781;28;20333;-60
2021/05/12 00:22:16;;;;;;;4.30;1.63;;;14.70;99.90;;;;;;5052163;28;20574;-60
2021/05/12 00:24:42;;;;;;;2.47;1.90;;;14.70;99.90;;;;;;5051124;28;20270;-59
2021/05/12 00:27:09;;;;;;;2.63;1.83;;;14.60;99.90;;;;;;5051892;28;20202;-60
2021/05/12 00:29:35;;;;;;;2.50;1.90;;;14.70;99.90;;;;;;5051574;28;20241;-60
2021/05/12 00:32:01;;;;;;;2.30;2.10;;;14.70;99.90;;;;;;5051736;28;20236;-60
2021/05/12 00:34:27;;;;;;;2.20;2.00;;;14.70;99.90;;;;;;5051399;28;20216;-60
2021/05/12 00:36:55;;;;;;;2.63;1.90;;;14.70;99.90;;;;;;5051593;28;20639;-61
2021/05/12 00:39:21;;;;;;;2.60;1.83;;;14.70;99.90;;;;;;5051555;28;20314;-60
2021/05/12 00:41:48;;;;;;;2.13;1.70;;;14.70;99.90;;;;;;5051522;28;20245;-60
2021/05/12 00:44:17;;;;;;;4.83;2.00;;;14.70;99.90;;;;;;5051512;28;20212;-60
2021/05/12 00:46:43;;;;;;;2.47;2.07;;;14.70;99.90;;;;;;5051461;28;20232;-61
2021/05/12 00:49:10;;;;;;;3.20;2.20;;;14.70;99.90;;;;;;5053043;28;20229;-60
2021/05/12 00:51:36;;;;;;;2.30;2.10;;;14.60;99.90;;;;;;5051397;28;20212;-60
2021/05/12 00:54:04;;;;;;;2.70;2.20;;;14.70;99.90;;;;;;5051166;28;20580;-60
2021/05/12 00:56:30;;;;;;;2.30;2.10;;;14.50;99.90;;;;;;5051254;28;20205;-60
2021/05/12 00:58:56;;;;;;;2.77;2.07;;;14.50;99.90;;;;;;5050865;28;20229;-60
2021/05/12 01:01:22;;;;;;;2.47;2.27;;;14.50;99.90;;;;;;5050897;28;20601;-60
2021/05/12 01:03:49;;;;;;;2.70;2.20;;;14.50;99.90;;;;;;5051116;28;20209;-60
2021/05/12 01:06:22;;;;;;;3.23;2.33;;;14.50;99.90;;;;;;5051144;28;20304;-60
2021/05/12 01:08:49;;;;;;;2.30;2.10;;;14.50;99.90;;;;;;5051481;28;20286;-60
2021/05/12 01:11:16;;;;;;;3.17;2.57;;;14.40;99.90;;;;;;5051056;28;20212;-60
2021/05/12 01:13:42;;;;;;;3.33;2.50;;;14.40;99.90;;;;;;5050939;28;20247;-61
2021/05/12 01:16:08;;;;;;;2.90;2.60;;;14.30;99.90;;;;;;5050879;28;20206;-61
2021/05/12 01:18:34;;;;;;;3.17;2.20;;;14.40;99.90;;;;;;5051065;28;20232;-61
2021/05/12 01:21:05;;;;;;;2.73;2.43;;;14.20;99.90;;;;;;5051105;28;20217;-58
2021/05/12 01:23:32;;;;;;;5.53;2.30;;;14.30;99.90;;;;;;5051166;28;20209;-58
2021/05/12 01:26:00;;;;;;;2.73;2.17;;;14.20;99.90;;;;;;5051002;28;20205;-61
2021/05/12 01:28:29;;;;;;;3.80;2.57;;;14.20;99.90;;;;;;5050599;28;20280;-61
2021/05/12 01:30:59;;;;;;;3.10;2.10;;;14.20;99.90;;;;;;5050956;28;20204;-60
2021/05/12 01:33:26;;;;;;;3.47;2.23;;;14.20;99.90;;;;;;5050692;28;20700;-59
2021/05/12 01:35:52;;;;;;;2.97;2.30;;;14.20;99.90;;;;;;5055923;28;20205;-60
2021/05/12 01:38:19;;;;;;;5.27;2.20;;;14.10;99.90;;;;;;5057264;28;20209;-61
2021/05/12 01:40:46;;;;;;;6.73;2.30;;;13.90;99.90;;;;;;5057423;28;20267;-59
2021/05/12 01:43:13;;;;;;;2.20;2.00;;;13.90;99.90;;;;;;5057096;28;20725;-60
2021/05/12 01:45:39;;;;;;;3.03;2.20;;;13.90;99.90;;;;;;5057462;28;20205;-61
2021/05/12 01:48:07;;;;;;;2.60;2.27;;;13.90;99.90;;;;;;5057283;28;20205;-61
2021/05/12 01:50:33;;;;;;;3.17;2.20;;;13.90;99.90;;;;;;5057686;28;20235;-60
2021/05/12 01:53:00;;;;;;;3.30;2.03;;;13.90;99.90;;;;;;5057361;28;20251;-61
2021/05/12 01:55:27;;;;;;;3.03;2.07;;;13.90;99.90;;;;;;5057087;28;20670;-60
2021/05/12 01:57:53;;;;;;;3.60;2.07;;;14.00;99.90;;;;;;5057055;28;20220;-60
2021/05/12 02:00:25;;;;;;;3.63;1.97;;;13.90;99.90;;;;;;5057161;28;20792;-60
2021/05/12 02:02:52;;;;;;;3.10;2.40;;;14.00;99.90;;;;;;5057148;28;20225;-60
2021/05/12 02:05:19;;;;;;;3.23;2.23;;;14.00;99.90;;;;;;5057138;28;20212;-61
2021/05/12 02:07:47;;;;;;;3.87;2.20;;;13.90;99.90;;;;;;5057066;28;20706;-60
2021/05/12 02:10:13;;;;;;;2.97;2.30;;;13.80;99.90;;;;;;5057169;28;20225;-61
2021/05/12 02:12:40;;;;;;;3.73;2.57;;;13.70;99.90;;;;;;5057450;28;20209;-61
2021/05/12 02:15:09;;;;;;;4.63;2.73;;;13.70;99.90;;;;;;5056986;28;20209;-60
2021/05/12 02:17:35;;;;;;;3.63;2.70;;;13.80;99.90;;;;;;5056890;28;20205;-60
2021/05/12 02:20:02;;;;;;;4.20;2.60;;;13.70;99.90;;;;;;5056939;28;20225;-60
2021/05/12 02:22:28;;;;;;;3.33;2.77;;;13.60;99.90;;;;;;5057358;28;20611;-60
2021/05/12 02:24:54;;;;;;;6.60;3.00;;;13.60;99.90;;;;;;5056716;28;20236;-60
2021/05/12 02:27:20;;;;;;;3.47;2.90;;;13.60;99.90;;;;;;5056973;28;20201;-60
2021/05/12 02:29:47;;;;;;;3.43;3.07;;;13.60;99.90;;;;;;5056905;28;20236;-60
2021/05/12 02:32:13;;;;;;;5.20;3.10;;;13.60;99.90;;;;;;5057117;28;20202;-60
2021/05/12 02:34:39;;;;;;;4.03;3.00;;;13.60;99.90;;;;;;5056790;28;20206;-60
2021/05/12 02:37:06;;;;;;;3.97;3.40;;;13.70;99.90;;;;;;5056835;28;20202;-60
2021/05/12 02:39:32;;;;;;;4.77;3.20;;;13.60;99.90;;;;;;5056591;28;20232;-59
2021/05/12 02:41:58;;;;;;;3.90;3.27;;;13.70;99.90;;;;;;5056923;28;20232;-60
2021/05/12 02:44:24;;;;;;;5.93;4.07;;;13.60;99.90;;;;;;5056771;28;20216;-60
2021/05/12 02:46:51;;;;;;;6.80;4.00;;;13.60;99.90;;;;;;5054246;28;20256;-60
2021/05/12 02:49:18;;;;;;;4.73;3.87;;;13.60;99.90;;;;;;5053406;28;20230;-60
2021/05/12 02:51:44;;;;;;;4.17;3.77;;;13.60;99.90;;;;;;5053379;28;20631;-61
2021/05/12 02:54:10;;;;;;;5.97;3.50;;;13.60;99.90;;;;;;5053514;28;20224;-61
2021/05/12 02:56:36;;;;;;;4.20;3.80;;;13.70;99.90;;;;;;5053545;28;20209;-60
2021/05/12 02:59:03;;;;;;;4.67;3.97;;;13.70;99.90;;;;;;5053188;28;20233;-60
2021/05/12 03:01:29;;;;;;;5.23;3.80;;;13.60;99.90;;;;;;5053322;28;20217;-61
2021/05/12 03:03:56;;;;;;;6.53;4.33;;;13.70;99.90;;;;;;5053113;28;20220;-60
2021/05/12 03:06:22;;;;;;;3.73;3.43;;;13.70;99.90;;;;;;5053183;28;20384;-60
2021/05/12 03:08:48;;;;;;;6.07;3.90;;;13.60;99.90;;;;;;5053196;28;20232;-60
2021/05/12 03:11:15;;;;;;;4.57;3.63;;;13.70;99.90;;;;;;5053236;28;20201;-59
2021/05/12 03:13:41;;;;;;;7.67;4.00;;;13.70;99.90;;;;;;5052768;28;20589;-60
2021/05/12 03:16:07;;;;;;;11.53;8.37;;;13.60;99.90;;;;;;5053029;28;20209;-60
2021/05/12 03:18:33;;;;;;;4.47;3.60;;;13.50;99.90;;;;;;5052810;28;20222;-60
2021/05/12 03:21:00;;;;;;;4.73;3.70;;;13.50;99.90;;;;;;5052761;28;20212;-60
2021/05/12 03:23:26;;;;;;;4.77;4.20;;;13.50;99.90;;;;;;5052941;28;20202;-60
2021/05/12 03:25:52;;;;;;;8.87;4.10;;;13.50;99.90;;;;;;5052763;28;20677;-59
2021/05/12 03:28:19;;;;;;;7.90;4.40;;;13.50;99.90;;;;;;5052644;28;20206;-61
2021/05/12 03:30:46;;;;;;;9.33;4.30;;;13.50;99.90;;;;;;5092990;22;20221;-64
2021/05/12 03:33:13;;;;;;;6.00;4.53;;;13.60;99.90;;;;;;5072806;28;20208;-64
2021/05/12 03:35:40;;;;;;;7.13;4.93;;;13.50;99.90;;;;;;5072947;28;20512;-64
2021/05/12 03:38:09;;;;;;;6.70;4.70;;;13.40;99.90;;;;;;5072894;28;20216;-64
2021/05/12 03:40:35;;;;;;;8.07;5.00;;;13.30;99.90;;;;;;5073182;28;20221;-64
2021/05/12 03:43:01;;;;;;;6.17;5.50;;;13.30;99.90;;;;;;5072332;28;20229;-64
2021/05/12 03:45:28;;;;;;;8.67;5.10;;;13.30;99.90;;;;;;5072616;28;20235;-64
2021/05/12 03:47:55;;;;;;;11.70;4.73;;;13.40;99.90;;;;;;5072803;28;20211;-64
2021/05/12 03:50:23;;;;;;;7.07;4.90;;;13.40;99.90;;;;;;5072573;28;20248;-64
2021/05/12 03:52:50;;;;;;;14.03;8.90;;;13.40;99.90;;;;;;5072757;28;20385;-64
2021/05/12 03:55:18;;;;;;;9.00;6.13;;;13.50;99.90;;;;;;5072590;28;20211;-64
2021/05/12 03:57:45;;;;;;;8.27;5.20;;;13.40;99.90;;;;;;5071636;28;20585;-64
2021/05/12 04:00:13;;;;;;;8.73;5.90;;;13.40;99.90;;;;;;5071907;28;20231;-64
2021/05/12 04:02:40;;;;;;;10.70;5.80;;;13.40;99.90;;;;;;5072115;28;20637;-64
2021/05/12 04:05:07;;;;;;;9.77;7.50;;;13.50;99.90;;;;;;5072296;28;20216;-65
2021/05/12 04:07:34;;;;;;;9.90;6.23;;;13.50;99.90;;;;;;5072150;28;20208;-63
2021/05/12 04:10:00;;;;;;;8.57;6.73;;;13.40;99.90;;;;;;5072173;28;20228;-63
2021/05/12 04:12:27;;;;;;;9.47;5.93;;;13.40;99.90;;;;;;5072289;28;20201;-63
2021/05/12 04:14:53;;;;;;;9.57;7.77;;;13.40;99.90;;;;;;5072310;28;20212;-64
2021/05/12 04:17:19;;;;;;;10.53;7.03;;;13.40;99.90;;;;;;5071976;28;20204;-65
2021/05/12 04:19:46;;;;;;;13.90;7.17;;;13.50;99.90;;;;;;5072206;28;20591;-65
2021/05/12 04:22:13;;;;;;;9.17;7.33;;;13.50;99.90;;;;;;5071956;28;20278;-64
2021/05/12 04:24:39;;;;;;;12.17;8.47;;;13.40;99.90;;;;;;5071517;28;20425;-65
2021/05/12 04:27:06;;;;;;;11.27;7.33;;;13.40;99.90;;;;;;5071751;28;20201;-64
2021/05/12 04:29:35;;;;;;;12.80;7.00;;;13.50;99.90;;;;;;5071545;28;20228;-64
2021/05/12 04:32:02;;;;;;;11.93;8.80;;;13.60;99.90;;;;;;5071870;28;20290;-64
2021/05/12 04:34:28;;;;;;;10.80;7.07;;;13.60;99.90;;;;;;5071778;28;20204;-65
2021/05/12 04:36:54;;;;;;;11.07;7.50;;;13.60;99.90;;;;;;5071588;28;20592;-64
2021/05/12 04:39:20;;;;;;;10.33;7.20;;;13.60;99.90;;;;;;5071457;28;20246;-64
2021/05/12 04:41:46;;;;;;;9.80;8.30;;;13.60;99.90;;;;;;5071326;28;20719;-65
2021/05/12 04:44:14;;;;;;;12.33;8.20;;;13.70;99.90;;;;;;5071151;28;20255;-65
2021/05/12 04:46:43;;;;;;;12.60;7.77;;;13.80;99.90;;;;;;5071607;28;20201;-65
2021/05/12 04:49:09;;;;;;;12.63;7.50;;;13.70;99.90;;;;;;5071425;28;20282;-65
2021/05/12 04:51:35;;;;;;;10.47;7.00;;;13.70;99.90;;;;;;5071432;28;20243;-65
2021/05/12 04:54:02;;;;;;;13.77;8.20;;;13.70;99.90;;;;;;5071277;28;20205;-65
2021/05/12 04:56:28;;;;;;;12.80;7.73;;;13.70;99.90;;;;;;5071546;28;20297;-65
2021/05/12 04:58:54;;;;;;;10.90;8.30;;;13.60;99.90;;;;;;5071203;28;20732;-64
2021/05/12 05:01:21;;;;;;;9.70;7.50;;;13.70;99.90;;;;;;5071145;28;20205;-64
2021/05/12 05:03:48;;;;;;;10.27;6.90;;;13.70;99.90;;;;;;5071196;28;20209;-64
2021/05/12 05:06:15;;;;;;;11.33;7.50;;;13.70;99.90;;;;;;5071139;28;20283;-64
2021/05/12 05:08:42;;;;;;;9.13;7.37;;;13.80;99.90;;;;;;5070760;28;20208;-64
2021/05/12 05:11:08;;;;;;;14.03;9.57;;;13.80;99.90;;;;;;5070768;28;20209;-64
2021/05/12 05:13:35;;;;;;;9.10;7.20;;;13.80;99.90;;;;;;5070742;28;20197;-63
2021/05/12 05:16:02;;;;;;;8.97;6.47;;;13.80;99.90;;;;;;5070947;28;20224;-62
2021/05/12 05:18:28;;;;;;;11.77;7.90;;;13.80;99.90;;;;;;5070769;28;20208;-64
2021/05/12 05:20:56;;;;;;;8.27;6.20;;;13.80;99.90;;;;;;5071177;28;20617;-64
2021/05/12 05:23:22;;;;;;;10.30;7.10;;;13.80;99.90;;;;;;5070968;28;20227;-63
2021/05/12 05:25:50;;;;;;;9.93;7.53;;;13.90;99.90;;;;;;5071396;28;20562;-64
2021/05/12 05:28:16;;;;;;;8.60;6.87;;;13.80;99.90;;;;;;5070720;28;20706;-63
2021/05/12 05:30:43;;;;;;;10.17;6.43;;;13.90;99.90;;;;;;5070880;28;20240;-63
2021/05/12 05:33:09;;;;;;;10.57;6.73;;;13.90;99.90;;;;;;5071504;28;20196;-62
2021/05/12 05:35:35;;;;;;;9.63;6.77;;;13.90;99.90;;;;;;5071081;28;20492;-64
2021/05/12 05:38:02;;;;;;;8.17;5.90;;;13.90;99.90;;;;;;5071260;28;20212;-66
2021/05/12 05:40:28;;;;;;;10.10;5.73;;;13.90;99.90;;;;;;5070998;28;20232;-64
2021/05/12 05:42:59;;;;;;;9.60;5.17;;;13.90;99.90;;;;;;5070848;28;20225;-63
2021/05/12 05:45:25;;;;;;;6.83;4.47;;;14.00;99.90;;;;;;5070942;28;20267;-64
2021/05/12 05:47:52;;;;;;;7.73;4.77;;;13.90;99.90;;;;;;5070832;28;20209;-63
2021/05/12 05:50:18;;;;;;;5.97;4.27;;;13.90;99.90;;;;;;5070894;28;20233;-64
2021/05/12 05:52:44;;;;;;;5.23;4.53;;;13.90;99.90;;;;;;5070711;28;20231;-65
2021/05/12 05:55:13;;;;;;;6.93;4.93;;;13.90;99.90;;;;;;5070485;28;20212;-65
2021/05/12 05:57:39;;;;;;;6.87;4.93;;;13.90;99.90;;;;;;5070864;28;20201;-64
2021/05/12 06:00:07;;;;;;;8.20;4.40;;;13.80;99.90;;;;;;5070565;28;20250;-65
2021/05/12 06:02:35;;;;;;;6.23;4.20;;;13.80;99.90;;;;;;5070588;28;20229;-64
2021/05/12 06:05:02;;;;;;;7.57;4.57;;;13.80;99.90;;;;;;5070457;28;20201;-64
2021/05/12 06:07:28;;;;;;;7.90;4.40;;;13.80;99.90;;;;;;5070681;28;20616;-65
2021/05/12 06:09:54;;;;;;;6.73;4.57;;;13.80;99.90;;;;;;5070328;28;20239;-64
2021/05/12 06:12:22;;;;;;;6.43;4.53;;;13.80;99.90;;;;;;5070728;28;20235;-64
2021/05/12 06:14:48;;;;;;;5.80;4.57;;;13.80;99.90;;;;;;5070456;28;20305;-64
2021/05/12 06:17:14;;;;;;;6.27;4.17;;;13.80;99.90;;;;;;5070555;28;20209;-62
2021/05/12 06:19:41;;;;;;;8.07;4.53;;;13.90;99.90;;;;;;5070246;28;20228;-64
2021/05/12 06:22:07;;;;;;;8.83;4.40;;;13.90;99.90;;;;;;5071643;28;20220;-63
2021/05/12 06:24:33;;;;;;;6.27;4.50;;;13.90;99.90;;;;;;5074234;28;20278;-64
2021/05/12 06:27:01;;;;;;;6.17;4.27;;;13.80;99.90;;;;;;5074149;28;20258;-65
2021/05/12 06:29:29;;;;;;;6.13;4.53;;;13.90;99.90;;;;;;5073906;28;20247;-64
2021/05/12 06:31:55;;;;;;;8.23;4.90;;;13.90;99.90;;;;;;5074213;28;20211;-64
2021/05/12 06:34:21;;;;;;;5.10;4.10;;;14.00;99.90;;;;;;5073789;28;20589;-63
2021/05/12 06:36:47;;;;;;;6.17;4.20;;;14.00;99.90;;;;;;5073825;28;20209;-63
2021/05/12 06:39:14;;;;;;;8.00;4.33;;;14.00;99.90;;;;;;5073945;28;20224;-63
2021/05/12 06:41:42;;;;;;;5.63;3.97;;;14.10;99.90;;;;;;5074415;28;20229;-64
2021/05/12 06:44:08;;;;;;;7.60;4.50;;;14.10;99.90;;;;;;5073861;28;20209;-66
2021/05/12 06:46:36;;;;;;;5.97;4.40;;;14.20;99.90;;;;;;5073841;28;20209;-65
2021/05/12 06:49:03;;;;;;;7.10;4.07;;;14.20;99.90;;;;;;5073521;28;20716;-65
2021/05/12 06:51:29;;;;;;;8.97;4.90;;;14.40;99.90;;;;;;5073703;28;20267;-65
2021/05/12 06:53:55;;;;;;;5.00;4.00;;;14.50;99.90;;;;;;5073916;28;20201;-65
2021/05/12 06:56:21;;;;;;;4.67;4.00;;;14.60;99.90;;;;;;5073772;28;20296;-66
2021/05/12 06:58:48;;;;;;;6.70;5.73;;;14.70;99.90;;;;;;5073654;28;20213;-66
2021/05/12 07:01:14;;;;;;;4.77;4.00;;;14.60;99.90;;;;;;5074320;28;20212;-66
2021/05/12 07:03:41;;;;;;;5.50;3.87;;;14.60;99.90;;;;;;5073848;28;20233;-66
2021/05/12 07:06:07;;;;;;;5.53;3.87;;;14.70;99.90;;;;;;5073526;28;20262;-65
2021/05/12 07:08:34;;;;;;;6.70;3.90;;;14.80;99.90;;;;;;5073805;28;20296;-66
2021/05/12 07:11:01;;;;;;;4.37;3.97;;;14.80;99.90;;;;;;5073695;28;20688;-66
2021/05/12 07:13:27;;;;;;;7.07;3.73;;;14.80;99.90;;;;;;5073800;28;20300;-64
2021/05/12 07:15:53;;;;;;;5.40;3.83;;;14.90;99.90;;;;;;5073387;28;20201;-64
2021/05/12 07:18:19;;;;;;;5.70;3.77;;;15.00;99.90;;;;;;5073242;28;20201;-63
2021/05/12 07:20:47;;;;;;;7.43;3.73;;;15.00;99.90;;;;;;5073388;28;20626;-65
2021/05/12 07:23:19;;;;;;;3.80;3.40;;;15.00;99.90;;;;;;5073113;28;20680;-67
2021/05/12 07:25:46;;;;;;;9.27;3.83;;;15.00;99.90;;;;;;5073362;28;20219;-64
2021/05/12 07:28:14;;;;;;;7.03;3.93;;;15.10;99.90;;;;;;5073166;28;20205;-65
2021/05/12 07:30:40;;;;;;;5.90;4.03;;;15.00;99.90;;;;;;5073222;28;20327;-65
2021/05/12 07:33:07;;;;;;;6.30;3.70;;;15.00;99.90;;;;;;5073220;28;20209;-65
2021/05/12 07:35:33;;;;;;;4.37;3.40;;;15.00;99.90;;;;;;5075048;28;20204;-66
2021/05/12 07:38:00;;;;;;;4.50;3.50;;;15.00;99.90;;;;;;5075125;28;20614;-66
2021/05/12 07:40:31;;;;;;;5.73;3.80;;;14.90;99.90;;;;;;5075064;28;20229;-66
2021/05/12 07:42:58;;;;;;;5.53;3.23;;;14.90;99.90;;;;;;5074218;28;20225;-66
2021/05/12 07:45:25;;;;;;;6.37;3.47;;;15.00;99.90;;;;;;5074598;28;20694;-64
2021/05/12 07:47:51;;;;;;;5.40;3.60;;;15.00;99.90;;;;;;5075768;28;20301;-65
2021/05/12 07:50:17;;;;;;;4.87;3.63;;;14.90;99.90;;;;;;5075956;28;20232;-65
2021/05/12 07:52:44;;;;;;;5.67;3.70;;;15.00;99.90;;;;;;5074428;28;20209;-64
2021/05/12 07:55:12;;;;;;;5.50;4.07;;;15.10;99.90;;;;;;5072663;28;20204;-65
2021/05/12 07:57:39;;;;;;;8.70;4.17;;;15.10;99.90;;;;;;5072835;28;20212;-64
2021/05/12 08:00:07;;;;;;;6.30;3.67;;;15.00;99.90;;;;;;5072358;28;20221;-64
2021/05/12 08:02:34;;;;;;;6.87;3.47;;;15.00;99.90;;;;;;5072476;28;20264;-65
2021/05/12 08:05:00;;;;;;;7.90;3.53;;;14.90;99.90;;;;;;5072442;28;20262;-65
2021/05/12 08:07:26;;;;;;;5.17;3.37;;;14.90;99.90;;;;;;5072539;28;20208;-64
2021/05/12 08:09:52;;;;;;;6.77;3.57;;;14.90;99.90;;;;;;5072409;28;20221;-63
2021/05/12 08:12:19;;;;;;;6.83;3.93;;;14.80;99.90;;;;;;5072301;28;20205;-64
2021/05/12 08:14:46;;;;;;;4.27;3.03;;;14.70;99.90;;;;;;5072065;28;20200;-60
2021/05/12 08:17:12;;;;;;;5.70;3.07;;;14.70;99.90;;;;;;5072214;28;20201;-61
2021/05/12 08:19:38;;;;;;;7.13;3.30;;;14.60;99.90;;;;;;5072417;28;20283;-66
2021/05/12 08:22:05;;;;;;;6.90;3.37;;;14.50;99.90;;;;;;5072258;28;20232;-64
2021/05/12 08:24:32;;;;;;;4.80;3.40;;;14.50;99.90;;;;;;5072094;28;20216;-63
2021/05/12 08:27:01;;;;;;;6.57;3.83;;;14.50;99.90;;;;;;5071863;28;20205;-61
2021/05/12 08:29:29;;;;;;;7.93;4.43;;;14.40;99.90;;;;;;5071598;28;20279;-61
2021/05/12 08:31:55;;;;;;;8.37;3.80;;;14.50;99.90;;;;;;5072170;28;20205;-61
2021/05/12 08:34:21;;;;;;;6.23;3.47;;;14.50;99.90;;;;;;5072431;28;20254;-61
2021/05/12 08:36:47;;;;;;;9.53;3.57;;;14.50;99.90;;;;;;5072257;28;20212;-62
2021/05/12 08:39:14;;;;;;;8.77;3.27;;;14.50;99.90;;;;;;5072105;28;20225;-61
2021/05/12 08:41:41;;;;;;;7.87;4.10;;;14.40;99.90;;;;;;5072241;28;20201;-63
2021/05/12 08:44:08;;;;;;;6.13;4.53;;;14.40;99.90;;;;;;5070991;28;20209;-62
2021/05/12 08:46:36;;;;;;;5.60;3.37;;;14.50;99.90;;;;;;5072300;28;20212;-61
2021/05/12 08:49:04;;;;;;;6.17;3.23;;;14.60;99.90;;;;;;5071951;28;20522;-60
2021/05/12 08:51:30;;;;;;;5.10;3.30;;;14.70;99.90;;;;;;5071638;28;20227;-61
2021/05/12 08:53:57;;;;;;;5.37;3.60;;;14.90;99.90;;;;;;5071556;28;20204;-61
2021/05/12 08:56:23;;;;;;;6.00;3.93;;;15.00;99.90;;;;;;5071287;28;20208;-62
2021/05/12 08:58:50;;;;;;;6.70;3.10;;;15.00;99.90;;;;;;5071366;28;20201;-61
2021/05/12 09:01:17;;;;;;;4.67;3.10;;;15.20;99.90;;;;;;5071589;28;20208;-62
2021/05/12 09:03:44;;;;;;;6.80;3.07;;;15.20;99.90;;;;;;5071181;28;20231;-61
2021/05/12 09:06:11;;;;;;;6.03;3.10;;;15.20;99.90;;;;;;5071129;28;20208;-61
2021/05/12 09:08:38;;;;;;;6.77;3.60;;;15.10;99.90;;;;;;5070972;28;20237;-62
2021/05/12 09:11:04;;;;;;;7.13;2.90;;;15.10;99.90;;;;;;5070979;28;20290;-61
2021/05/12 09:13:37;;;;;;;5.43;2.97;;;15.10;99.90;;;;;;5071106;28;20201;-61
2021/05/12 09:16:20;;;;;;;6.50;3.10;;;14.90;99.90;;;;;;5071010;28;20653;-62
2021/05/12 09:18:48;;;;;;;6.93;3.10;;;15.00;99.90;;;;;;5070907;28;20201;-61
2021/05/12 09:21:15;;;;;;;8.47;4.00;;;15.00;99.90;;;;;;5071355;28;20204;-61
2021/05/12 09:23:43;;;;;;;9.40;3.50;;;15.00;99.90;;;;;;5070415;28;20266;-61
2021/05/12 09:26:14;;;;;;;5.43;3.40;;;15.00;99.90;;;;;;5070718;28;20205;-62
2021/05/12 09:28:41;;;;;;;5.20;3.53;;;15.00;99.90;;;;;;5070402;28;20244;-62
2021/05/12 09:31:10;;;;;;;8.70;3.43;;;15.10;99.90;;;;;;5093760;22;20324;-62
2021/05/12 09:33:40;;;;;;;8.83;3.40;;;15.10;99.90;;;;;;5071079;28;20200;-62
2021/05/12 09:36:09;;;;;;;7.07;3.30;;;15.10;99.90;;;;;;5070929;28;20208;-62
2021/05/12 09:38:36;;;;;;;6.43;4.20;;;15.00;99.90;;;;;;5071026;28;20234;-61
2021/05/12 09:41:10;;;;;;;4.70;3.10;;;15.00;99.90;;;;;;5070670;28;20225;-64
2021/05/12 09:43:44;;;;;;;6.70;3.63;;;15.10;99.90;;;;;;5071203;28;20642;-64
2021/05/12 09:46:16;;;;;;;7.43;3.10;;;15.10;99.90;;;;;;5071488;28;20661;-62
2021/05/12 09:48:47;;;;;;;6.07;3.43;;;15.20;99.90;;;;;;5070859;28;20492;-63
2021/05/12 09:51:19;;;;;;;5.57;4.23;;;15.20;99.90;;;;;;5070987;28;20227;-63
2021/05/12 09:54:05;;;;;;;7.73;3.93;;;15.20;99.90;;;;;;5070735;28;20679;-63
2021/05/12 09:56:40;;;;;;;5.60;3.40;;;15.30;99.90;;;;;;5073018;28;20247;-63
2021/05/12 09:59:08;;;;;;;6.97;3.13;;;15.20;99.90;;;;;;5074444;28;20203;-64
2021/05/12 10:01:46;;;;;;;6.20;3.93;;;15.20;99.90;;;;;;5074908;28;20751;-64
2021/05/12 10:04:23;;;;;;;6.50;3.90;;;15.20;99.90;;;;;;5075264;28;20185;-63
2021/05/12 10:06:51;;;;;;;8.60;5.00;;;15.20;99.90;;;;;;5075916;28;20208;-64
2021/05/12 10:09:19;;;;;;;12.43;4.90;;;15.40;99.90;;;;;;5074892;28;20229;-64
2021/05/12 10:12:09;;;;;;;6.63;3.67;;;15.40;99.90;;;;;;5075123;28;20211;-62
2021/05/12 10:14:37;;;;;;;5.87;3.17;;;15.50;99.90;;;;;;5074883;28;20259;-62
2021/05/12 10:17:04;;;;;;;5.33;3.40;;;15.50;99.90;;;;;;5075207;28;20262;-62
2021/05/12 10:19:30;;;;;;;5.63;3.40;;;15.60;99.90;;;;;;5074532;28;20228;-63
2021/05/12 10:21:59;;;;;;;7.10;2.83;;;15.70;99.90;;;;;;5074441;28;20205;-62
2021/05/12 10:24:26;;;;;;;6.67;3.00;;;15.60;99.90;;;;;;5075346;28;20240;-64
2021/05/12 10:26:53;;;;;;;8.07;3.17;;;15.70;99.90;;;;;;5075077;28;20208;-63
2021/05/12 10:29:21;;;;;;;6.10;2.77;;;15.80;99.90;;;;;;5077952;28;20241;-63
2021/05/12 10:31:48;;;;;;;5.53;3.43;;;15.80;99.90;;;;;;5079760;28;20205;-63
2021/05/12 10:34:35;;;;;;;4.23;2.90;;;15.80;99.90;;;;;;5079045;28;20230;-63
2021/05/12 10:37:21;;;;;;;5.23;2.53;;;15.80;99.90;;;;;;5078841;28;20212;-63
2021/05/12 10:39:53;;;;;;;5.57;2.90;;;15.80;99.90;;;;;;5076611;28;20225;-63
2021/05/12 10:42:45;;;;;;;14.00;7.30;;;15.80;99.90;;;;;;5075154;28;20600;-64
2021/05/12 10:45:16;;;;;;;7.37;3.53;;;15.90;99.90;;;;;;5075744;28;20295;-63
2021/05/12 10:47:42;;;;;;;5.00;3.57;;;15.90;99.90;;;;;;5074595;28;20235;-64
2021/05/12 10:50:09;;;;;;;5.07;3.40;;;16.00;99.90;;;;;;5075259;28;20229;-64
2021/05/12 10:52:36;;;;;;;3.90;3.33;;;16.10;99.90;;;;;;5075135;28;20685;-63
2021/05/12 10:55:02;;;;;;;8.23;3.40;;;16.20;99.90;;;;;;5074149;28;20209;-63
2021/05/12 10:57:45;;;;;;;5.07;3.13;;;16.40;99.90;;;;;;5074511;28;20262;-65
2021/05/12 11:00:13;;;;;;;7.83;4.30;;;16.70;99.90;;;;;;5074121;28;20722;-64
2021/05/12 11:03:02;;;;;;;5.60;3.27;;;16.90;99.90;;;;;;5073422;28;20228;-64
2021/05/12 11:05:42;;;;;;;4.10;3.20;;;17.10;99.90;;;;;;5068059;28;20205;-64
2021/05/12 11:08:14;;;;;;;6.47;3.37;;;17.30;99.90;;;;;;5072622;28;20200;-64
2021/05/12 11:10:50;;;;;;;11.30;3.47;;;17.50;99.90;;;;;;5073575;28;20731;-64
2021/05/12 11:13:22;;;;;;;4.43;3.33;;;17.70;99.90;;;;;;5073859;28;20209;-64
2021/05/12 11:15:52;;;;;;;6.93;3.60;;;17.80;99.90;;;;;;5073677;28;20640;-64
2021/05/12 11:18:50;;;;;;;9.43;6.00;;;17.90;99.90;;;;;;5073513;28;20216;-66
2021/05/12 11:21:26;;;;;;;9.73;4.37;;;18.00;99.90;;;;;;5073843;28;20234;-64
2021/05/12 11:24:15;;;;;;;6.10;3.83;;;17.90;99.90;;;;;;5073335;28;20342;-65
2021/05/12 11:26:53;;;;;;;4.37;3.30;;;17.80;99.90;;;;;;5073849;28;20213;-64
2021/05/12 11:32:06;;;;;;;4.70;3.27;;;17.70;99.90;;;;;;5073726;28;20564;-64
2021/05/12 11:34:32;;;;;;;4.23;3.27;;;17.80;99.90;;;;;;5074139;28;20576;-65
2021/05/12 11:37:07;;;;;;;5.53;3.57;;;18.00;99.90;;;;;;5073412;28;20216;-65
2021/05/12 11:39:34;;;;;;;9.03;4.20;;;18.20;99.90;;;;;;5073438;28;20610;-65
2021/05/12 11:42:01;;;;;;;5.83;3.27;;;18.40;99.90;;;;;;5074916;28;20275;-65
2021/05/12 11:44:27;;;;;;;8.53;3.37;;;18.70;99.90;;;;;;5080585;28;20209;-65
2021/05/12 11:46:53;;;;;;;5.50;3.50;;;19.10;99.90;;;;;;5080653;28;20259;-65
2021/05/12 11:49:22;;;;;;;5.43;3.33;;;19.40;99.70;;;;;;5074305;28;20225;-66
2021/05/12 11:51:51;;;;;;;4.40;2.90;;;19.70;99.00;;;;;;5073257;28;20479;-65
2021/05/12 11:54:20;;;;;;;5.70;3.00;;;20.00;98.10;;;;;;5073165;28;20657;-65
2021/05/12 11:56:48;;;;;;;4.90;3.08;;;20.40;97.50;;;;;;5073639;28;20589;-64
2021/05/12 11:59:19;;;;;;;6.85;3.40;;;20.80;96.40;;;;;;5072927;28;20212;-65
2021/05/12 12:01:48;;;;;;;8.55;3.70;;;21.10;95.20;;;;;;5073521;28;20208;-64
2021/05/12 12:04:20;;;;;;;5.20;3.30;;;21.30;95.00;;;;;;5072475;28;20229;-65
2021/05/12 12:06:48;;;;;;;4.95;3.13;;;21.50;94.10;;;;;;5072992;28;20209;-65
2021/05/12 12:09:16;;;;;;;5.55;3.25;;;21.70;93.60;;;;;;5072699;28;20761;-65
2021/05/12 12:11:44;;;;;;;8.30;3.47;;;21.80;93.00;;;;;;5072833;28;20205;-65
2021/05/12 12:14:12;;;;;;;5.28;3.13;;;21.70;92.90;;;;;;5072559;28;20289;-64
2021/05/12 12:16:40;;;;;;;6.40;3.30;;;21.70;92.40;;;;;;5072430;28;20673;-64
2021/05/12 12:19:08;;;;;;;6.20;3.50;;;21.60;92.40;;;;;;5071257;28;20471;-65
2021/05/12 12:21:34;;;;;;;5.75;3.40;;;21.60;92.50;;;;;;5072628;28;20420;-64
2021/05/12 12:24:07;;;;;;;5.75;3.50;;;21.70;92.50;;;;;;5072253;28;20221;-65
2021/05/12 12:26:35;;;;;;;8.15;3.63;;;21.80;91.70;;;;;;5072211;28;20300;-65
2021/05/12 12:29:05;;;;;;;5.35;3.50;;;21.70;92.30;;;;;;5072078;28;20212;-65
2021/05/12 12:31:36;;;;;;;4.57;2.95;;;21.60;92.30;;;;;;5072549;28;20205;-65
2021/05/12 12:34:24;;;;;;;7.13;3.05;;;21.50;92.20;;;;;;5072620;28;20557;-64
2021/05/12 12:36:56;;;;;;;7.68;3.58;;;21.50;92.00;;;;;;5066239;28;20588;-65
2021/05/12 12:39:44;;;;;;;5.35;3.72;;;21.60;92.50;;;;;;5071665;28;20290;-65
2021/05/12 12:42:11;;;;;;;5.53;3.42;;;21.50;92.20;;;;;;5072345;28;20209;-64
2021/05/12 12:44:39;;;;;;;5.93;3.75;;;21.50;92.10;;;;;;5072073;28;20212;-64
2021/05/12 12:47:13;;;;;;;5.95;3.58;;;21.40;91.50;;;;;;5072194;28;20290;-65
2021/05/12 12:49:45;;;;;;;4.82;3.58;;;21.30;93.30;;;;;;5071712;28;20322;-65
2021/05/12 12:52:14;;;;;;;5.32;3.63;;;21.30;93.00;;;;;;5072020;28;20201;-65